Time;durP1;ratioP1;P1;durP2;ratioP2;P2;SDS_P1;SDS_P2;PMS_P1;PMS_P2;Temp;Humidity;BMP_temperature;BMP_pressure;BME280_temperature;BME280_humidity;BME280_pressure;Samples;Min_cycle;Max_cycle;Signal;HPM_P1;HPM_P2
2021/11/08 00:02:08;;;;;;;212.30;123.57;;;307.30;2304.00;;;;;;5009916;28;20391;-79
2021/11/08 00:04:34;;;;;;;226.35;123.45;;;307.30;2304.00;;;;;;4996579;28;20034;-79
2021/11/08 00:07:02;;;;;;;217.07;128.88;;;307.30;2304.00;;;;;;5014045;28;20054;-79
2021/11/08 00:09:28;;;;;;;208.30;124.05;;;307.30;2304.00;;;;;;4996529;28;20125;-79
2021/11/08 00:11:54;;;;;;;204.23;118.35;;;307.30;2304.00;;;;;;4996899;28;20029;-78
2021/11/08 00:14:22;;;;;;;193.48;120.75;;;307.30;2304.00;;;;;;4996630;28;20100;-80
2021/11/08 00:22:05;;;;;;;214.32;126.95;;;307.30;2304.00;;;;;;5014368;28;20093;-81
2021/11/08 00:24:32;;;;;;;222.90;124.38;;;307.30;2304.00;;;;;;4996573;28;20061;-80
2021/11/08 00:26:59;;;;;;;219.27;126.82;;;307.30;2304.00;;;;;;5014553;28;20018;-80
2021/11/08 00:29:25;;;;;;;205.50;120.68;;;282.50;2278.40;;;;;;4996727;28;20129;-80
2021/11/08 00:31:51;;;;;;;191.25;114.85;;;282.50;2278.40;;;;;;4996548;28;20108;-80
2021/11/08 00:34:17;;;;;;;193.02;108.50;;;282.50;2278.40;;;;;;4997064;28;20038;-81
2021/11/08 00:36:43;;;;;;;175.40;103.00;;;282.50;2278.40;;;;;;5009512;28;20026;-80
2021/11/08 00:39:09;;;;;;;180.25;105.03;;;282.50;2278.40;;;;;;4993063;28;20033;-81
2021/11/08 00:41:35;;;;;;;169.27;98.25;;;282.50;2278.40;;;;;;4993319;28;20791;-80
2021/11/08 00:44:02;;;;;;;174.60;95.53;;;282.50;2278.40;;;;;;4993155;28;20046;-80
2021/11/08 00:46:28;;;;;;;161.60;95.43;;;282.50;2278.40;;;;;;4993429;28;20479;-81
2021/11/08 00:48:54;;;;;;;155.48;89.00;;;282.50;2278.40;;;;;;5009706;28;20025;-80
2021/11/08 00:51:20;;;;;;;154.98;93.00;;;282.50;2278.40;;;;;;4996167;28;20026;-81
2021/11/08 00:53:47;;;;;;;156.73;93.03;;;282.50;2278.40;;;;;;5009060;28;20033;-81
2021/11/08 00:56:17;;;;;;;147.07;89.70;;;282.50;2278.40;;;;;;4996134;28;20026;-80
2021/11/08 00:58:44;;;;;;;143.07;84.03;;;282.50;2278.40;;;;;;4995763;28;20401;-80
2021/11/08 01:01:17;;;;;;;170.95;98.55;;;282.50;2278.40;;;;;;5008862;28;20073;-81
2021/11/08 01:03:44;;;;;;;175.55;100.72;;;282.50;2278.40;;;;;;5005503;28;20140;-80
2021/11/08 01:06:11;;;;;;;171.40;98.78;;;282.50;2278.40;;;;;;4995409;28;20026;-80
2021/11/08 01:08:38;;;;;;;166.73;96.25;;;282.40;2278.40;;;;;;5002417;28;20449;-79
2021/11/08 01:11:04;;;;;;;179.23;101.20;;;282.40;2278.40;;;;;;5014523;28;20030;-80
2021/11/08 01:13:30;;;;;;;179.65;99.22;;;282.40;2278.40;;;;;;5013264;28;20022;-80
2021/11/08 01:15:57;;;;;;;178.00;98.80;;;282.30;2278.40;;;;;;5007384;28;20140;-81
2021/11/08 01:18:24;;;;;;;137.60;82.70;;;282.20;2278.40;;;;;;4996663;28;20054;-79
2021/11/08 01:20:50;;;;;;;139.55;81.70;;;282.10;2278.40;;;;;;4996602;28;20434;-80
2021/11/08 01:23:20;;;;;;;138.80;78.60;;;282.10;2278.40;;;;;;5000679;28;20068;-81
2021/11/08 01:25:52;;;;;;;151.77;85.25;;;282.00;2278.40;;;;;;5014274;28;20470;-79
2021/11/08 01:28:17;;;;;;;159.15;85.68;;;282.10;2278.40;;;;;;5013527;28;20018;-78
2021/11/08 01:30:43;;;;;;;165.20;90.97;;;282.00;2278.40;;;;;;4996027;28;20084;-79
2021/11/08 01:33:15;;;;;;;159.75;93.53;;;282.10;2278.40;;;;;;5011083;28;20027;-78
2021/11/08 01:35:43;;;;;;;159.20;91.30;;;282.00;2278.40;;;;;;4996525;28;20048;-79
2021/11/08 01:38:21;;;;;;;151.20;88.43;;;282.00;2278.40;;;;;;5011656;28;20401;-81
2021/11/08 01:40:48;;;;;;;140.65;82.22;;;282.00;2278.40;;;;;;4998205;28;20029;-80
2021/11/08 01:43:14;;;;;;;129.85;73.85;;;281.80;2278.40;;;;;;5014839;28;20100;-80
2021/11/08 01:45:41;;;;;;;128.52;78.20;;;281.70;2278.40;;;;;;5013418;28;20022;-79
2021/11/08 01:48:08;;;;;;;132.70;74.72;;;281.70;2278.40;;;;;;5012960;28;20029;-79
2021/11/08 01:50:35;;;;;;;130.82;77.85;;;281.70;2278.40;;;;;;5012555;28;20045;-79
2021/11/08 01:53:01;;;;;;;116.13;63.70;;;281.70;2278.40;;;;;;4995444;28;20030;-79
2021/11/08 01:55:28;;;;;;;97.18;55.60;;;281.60;2278.40;;;;;;4995317;28;20390;-79
2021/11/08 01:57:55;;;;;;;106.97;61.28;;;281.70;2278.40;;;;;;5012971;28;20022;-79
2021/11/08 02:00:22;;;;;;;118.10;67.25;;;281.70;2278.40;;;;;;5011771;28;20152;-82
2021/11/08 02:02:48;;;;;;;98.65;60.90;;;281.60;2278.40;;;;;;5012767;28;20278;-80
2021/11/08 02:05:15;;;;;;;111.70;61.53;;;281.60;2278.40;;;;;;4995014;28;20109;-81
2021/11/08 02:07:42;;;;;;;100.45;59.00;;;281.60;2278.40;;;;;;4994997;28;20137;-79
2021/11/08 02:10:10;;;;;;;99.93;58.58;;;281.60;2278.40;;;;;;4995265;28;20034;-81
2021/11/08 02:12:36;;;;;;;83.15;52.08;;;281.60;2278.40;;;;;;4999137;28;20064;-81
2021/11/08 02:15:08;;;;;;;89.15;50.22;;;281.70;2278.40;;;;;;4999088;28;20143;-81
2021/11/08 02:17:34;;;;;;;75.20;43.47;;;281.60;2278.40;;;;;;5030356;28;20048;-81
2021/11/08 02:20:20;;;;;;;58.78;36.50;;;256.70;2252.80;;;;;;4998520;28;20023;-80
2021/11/08 02:22:50;;;;;;;53.53;30.88;;;256.90;2252.80;;;;;;4996448;28;20029;-81
2021/11/08 02:25:20;;;;;;;58.60;32.83;;;256.80;2252.80;;;;;;4998977;28;20048;-80
2021/11/08 02:27:49;;;;;;;65.47;37.33;;;256.70;2252.80;;;;;;4998954;28;20050;-80
2021/11/08 02:30:16;;;;;;;83.65;47.30;;;256.60;2252.80;;;;;;5015298;28;20045;-80
2021/11/08 02:32:43;;;;;;;82.13;48.40;;;256.50;2252.80;;;;;;4998770;28;20026;-80
2021/11/08 02:35:13;;;;;;;82.45;47.30;;;256.40;2252.80;;;;;;4998511;28;20117;-80
2021/11/08 02:37:40;;;;;;;86.57;50.33;;;256.30;2252.80;;;;;;4998537;28;20030;-80
2021/11/08 02:40:07;;;;;;;83.88;44.95;;;256.40;2252.80;;;;;;4998166;28;20509;-80
2021/11/08 02:42:34;;;;;;;80.15;44.97;;;256.40;2252.80;;;;;;4998389;28;20088;-79
2021/11/08 02:45:03;;;;;;;73.13;46.20;;;256.40;2252.80;;;;;;4998503;28;20049;-79
2021/11/08 02:47:29;;;;;;;67.57;39.67;;;256.40;2252.80;;;;;;4998255;28;20494;-80
2021/11/08 02:49:57;;;;;;;77.70;41.35;;;256.40;2252.80;;;;;;5015904;28;20030;-80
2021/11/08 02:52:25;;;;;;;70.45;38.70;;;256.40;2252.80;;;;;;5015997;28;20025;-79
2021/11/08 02:54:52;;;;;;;66.75;38.83;;;256.50;2252.80;;;;;;4999718;28;20072;-79
2021/11/08 02:57:21;;;;;;;67.30;41.22;;;256.50;2252.80;;;;;;5009705;28;20060;-79
2021/11/08 02:59:47;;;;;;;67.05;36.45;;;256.50;2252.80;;;;;;4998253;28;20022;-79
2021/11/08 03:02:16;;;;;;;65.18;38.70;;;256.50;2252.80;;;;;;5015634;28;20033;-79
2021/11/08 03:04:45;;;;;;;65.68;39.03;;;256.50;2252.80;;;;;;4998794;28;20103;-80
2021/11/08 03:07:12;;;;;;;70.18;37.13;;;256.60;2252.80;;;;;;4997573;28;20121;-79
2021/11/08 03:09:42;;;;;;;62.45;39.42;;;256.60;2252.80;;;;;;5015556;28;20497;-80
2021/11/08 03:12:14;;;;;;;64.93;35.97;;;256.60;2252.80;;;;;;5015613;28;20141;-80
2021/11/08 03:14:43;;;;;;;59.28;35.13;;;256.60;2252.80;;;;;;4997774;28;20022;-80
2021/11/08 03:17:15;;;;;;;61.78;36.75;;;256.70;2252.80;;;;;;4998797;28;20045;-79
2021/11/08 03:19:43;;;;;;;68.30;40.72;;;256.70;2252.80;;;;;;5021483;28;20489;-79
2021/11/08 03:22:16;;;;;;;60.47;36.42;;;256.70;2252.80;;;;;;4997110;28;20029;-80
2021/11/08 03:24:57;;;;;;;71.30;38.70;;;256.70;2252.80;;;;;;5015116;28;20043;-80
2021/11/08 03:27:46;;;;;;;98.80;48.70;;;256.70;2252.80;;;;;;4997597;28;20092;-79
2021/11/08 03:30:16;;;;;;;87.47;46.83;;;256.70;2252.80;;;;;;5015154;28;20171;-79
2021/11/08 03:32:50;;;;;;;86.18;46.97;;;256.70;2252.80;;;;;;5000274;28;20022;-79
2021/11/08 03:35:20;;;;;;;88.85;46.97;;;256.70;2252.80;;;;;;5017332;28;20489;-78
2021/11/08 03:37:47;;;;;;;78.18;46.25;;;256.80;2252.80;;;;;;4997323;28;20116;-79
2021/11/08 03:40:26;;;;;;;84.97;51.08;;;256.80;2252.80;;;;;;5014680;28;20068;-79
2021/11/08 03:42:55;;;;;;;70.47;39.80;;;256.70;2252.80;;;;;;4997364;28;20053;-79
2021/11/08 03:45:25;;;;;;;58.97;34.58;;;256.70;2252.80;;;;;;4997228;28;20470;-79
2021/11/08 03:47:53;;;;;;;60.72;37.35;;;256.70;2252.80;;;;;;4997233;28;20026;-79
2021/11/08 03:50:19;;;;;;;65.75;37.00;;;256.70;2252.80;;;;;;5007064;28;20097;-79
2021/11/08 03:52:45;;;;;;;51.17;28.95;;;256.70;2252.80;;;;;;4998084;28;20033;-78
2021/11/08 03:55:12;;;;;;;66.50;33.38;;;256.70;2252.80;;;;;;5016735;28;20034;-78
2021/11/08 03:57:38;;;;;;;87.15;48.65;;;256.80;2252.80;;;;;;5016431;28;20025;-79
2021/11/08 04:00:06;;;;;;;63.22;33.63;;;256.80;2252.80;;;;;;5014887;28;20026;-79
2021/11/08 04:02:32;;;;;;;41.40;24.38;;;256.80;2252.80;;;;;;4997906;28;20076;-79
2021/11/08 04:04:59;;;;;;;55.63;31.40;;;256.80;2252.80;;;;;;5015846;28;20060;-79
2021/11/08 04:07:26;;;;;;;51.40;29.20;;;256.80;2252.80;;;;;;5014901;28;20402;-79
2021/11/08 04:09:52;;;;;;;37.47;20.02;;;256.90;2252.80;;;;;;4998974;28;20123;-79
2021/11/08 04:12:19;;;;;;;33.75;18.55;;;256.80;2252.80;;;;;;4997107;28;20108;-79
2021/11/08 04:14:45;;;;;;;36.13;19.58;;;256.90;2252.80;;;;;;5014061;28;20026;-79
2021/11/08 04:17:13;;;;;;;26.85;14.10;;;256.90;2252.80;;;;;;5004092;28;20025;-79
2021/11/08 04:19:40;;;;;;;22.65;13.15;;;256.80;2252.80;;;;;;4999076;28;20045;-79
2021/11/08 04:22:06;;;;;;;22.13;11.63;;;256.80;2252.80;;;;;;5014018;28;20022;-79
2021/11/08 04:24:32;;;;;;;28.08;13.52;;;256.70;2252.80;;;;;;5013954;28;20513;-79
2021/11/08 04:26:58;;;;;;;23.40;12.63;;;256.70;2252.80;;;;;;5020042;28;20435;-79
2021/11/08 04:29:24;;;;;;;21.13;11.73;;;256.70;2252.80;;;;;;5020325;28;20037;-79
2021/11/08 04:31:51;;;;;;;22.73;11.55;;;256.70;2252.80;;;;;;5034552;28;20744;-79
2021/11/08 04:42:14;;;;;;;19.67;12.05;;;256.70;2252.80;;;;;;5014047;28;20443;-79
2021/11/08 04:55:16;;;;;;;22.33;12.85;;;256.90;2252.80;;;;;;5013899;28;20028;-79
2021/11/08 04:58:44;;;;;;;23.55;12.65;;;256.90;2252.80;;;;;;4995821;28;20037;-79
2021/11/08 05:30:20;;;;;;;23.15;13.65;;;256.60;2252.80;;;;;;4983813;28;20534;-78
2021/11/08 05:32:49;;;;;;;22.65;13.32;;;256.50;2252.80;;;;;;4991656;28;20030;-79
2021/11/08 05:35:16;;;;;;;22.23;12.85;;;256.50;2252.80;;;;;;4975434;28;20018;-78
2021/11/08 05:37:44;;;;;;;28.23;13.85;;;256.50;2252.80;;;;;;4977529;28;20634;-79
2021/11/08 05:40:14;;;;;;;24.25;13.93;;;256.60;2252.80;;;;;;4990848;28;20038;-79
2021/11/08 05:42:41;;;;;;;26.50;16.17;;;256.60;2252.80;;;;;;4990959;28;20042;-80
2021/11/08 05:45:09;;;;;;;29.40;15.50;;;256.60;2252.80;;;;;;4992687;28;20026;-80
2021/11/08 05:47:36;;;;;;;26.63;15.95;;;256.60;2252.80;;;;;;5009116;28;20501;-79
2021/11/08 05:50:02;;;;;;;30.65;14.48;;;256.60;2252.80;;;;;;4994255;28;20034;-80
2021/11/08 05:52:28;;;;;;;26.67;15.18;;;256.60;2252.80;;;;;;4998082;28;20124;-79
2021/11/08 05:54:54;;;;;;;29.08;13.70;;;256.50;2252.80;;;;;;4991529;28;20109;-81
2021/11/08 06:51:35;;;;;;;52.50;29.60;;;256.70;2252.80;;;;;;5012592;28;20095;-80
2021/11/08 06:54:02;;;;;;;43.47;25.08;;;256.70;2252.80;;;;;;4981587;28;20026;-79
2021/11/08 06:56:32;;;;;;;36.20;20.13;;;256.70;2252.80;;;;;;5012175;28;20029;-79
2021/11/08 06:58:58;;;;;;;37.05;20.95;;;256.80;2252.80;;;;;;4997346;28;20060;-79
2021/11/08 07:01:24;;;;;;;40.80;23.45;;;256.90;2252.80;;;;;;4999129;28;20070;-79
2021/11/08 07:03:49;;;;;;;42.63;24.40;;;256.90;2252.80;;;;;;4999916;28;20033;-80
2021/11/08 07:06:15;;;;;;;36.08;20.42;;;281.60;2278.40;;;;;;4998290;28;20030;-79
2021/11/08 07:08:41;;;;;;;37.38;22.23;;;256.90;2252.80;;;;;;5000900;28;20049;-79
2021/11/08 07:11:07;;;;;;;43.05;25.13;;;256.90;2252.80;;;;;;4999325;28;20084;-79
2021/11/08 07:13:34;;;;;;;48.88;28.50;;;256.90;2252.80;;;;;;5001586;28;20030;-80
2021/11/08 07:15:59;;;;;;;49.75;27.85;;;256.90;2252.80;;;;;;5003415;28;20152;-79
2021/11/08 07:18:25;;;;;;;37.83;19.88;;;256.90;2252.80;;;;;;4998350;28;20026;-79
2021/11/08 07:20:51;;;;;;;29.83;17.48;;;256.80;2252.80;;;;;;4998546;28;20113;-79
2021/11/08 07:23:17;;;;;;;35.67;20.27;;;256.90;2252.80;;;;;;5017972;28;20014;-79
2021/11/08 07:25:43;;;;;;;29.38;20.67;;;256.90;2252.80;;;;;;4998192;28;20466;-78
2021/11/08 07:28:11;;;;;;;37.25;23.85;;;256.90;2252.80;;;;;;4999361;28;20022;-80
2021/11/08 07:30:41;;;;;;;50.78;31.92;;;281.60;2278.40;;;;;;5013204;28;20487;-80
2021/11/08 07:33:07;;;;;;;73.55;41.72;;;281.70;2278.40;;;;;;5013805;28;20027;-79
2021/11/08 07:35:33;;;;;;;66.55;37.85;;;281.70;2278.40;;;;;;5016376;28;20033;-79
2021/11/08 07:37:59;;;;;;;79.82;46.38;;;281.80;2278.40;;;;;;4998593;28;20026;-79
2021/11/08 07:40:25;;;;;;;61.83;36.70;;;281.90;2278.40;;;;;;4999539;28;20541;-79
2021/11/08 07:42:51;;;;;;;39.95;25.25;;;281.90;2278.40;;;;;;4998252;28;20109;-79
2021/11/08 07:45:17;;;;;;;37.95;21.55;;;282.00;2278.40;;;;;;5010589;28;20049;-78
2021/11/08 07:47:42;;;;;;;33.70;22.13;;;282.00;2278.40;;;;;;4997632;28;20567;-78
2021/11/08 07:50:09;;;;;;;37.47;22.45;;;282.00;2278.40;;;;;;4997313;28;20041;-75
2021/11/08 07:52:34;;;;;;;131.60;74.55;;;282.00;2278.40;;;;;;5015189;28;20092;-75
2021/11/08 07:55:01;;;;;;;95.35;61.15;;;282.00;2278.40;;;;;;5005494;28;20426;-74
2021/11/08 07:57:26;;;;;;;79.60;46.47;;;282.00;2278.40;;;;;;5011501;28;20113;-75
2021/11/08 07:59:52;;;;;;;77.20;46.17;;;281.90;2278.40;;;;;;5012386;28;20058;-82
2021/11/08 08:02:18;;;;;;;87.07;52.72;;;281.90;2278.40;;;;;;4997359;28;20041;-80
2021/11/08 08:04:44;;;;;;;69.43;41.63;;;281.90;2278.40;;;;;;5016195;28;20033;-80
2021/11/08 08:07:10;;;;;;;64.78;35.90;;;281.90;2278.40;;;;;;5001255;28;20054;-79
2021/11/08 08:09:36;;;;;;;53.25;32.97;;;281.80;2278.40;;;;;;5014908;28;20089;-79
2021/11/08 08:12:03;;;;;;;49.72;30.30;;;281.80;2278.40;;;;;;4999143;28;20034;-81
2021/11/08 08:14:29;;;;;;;42.05;25.55;;;281.80;2278.40;;;;;;4999613;28;20504;-78
2021/11/08 08:16:55;;;;;;;52.60;31.95;;;281.80;2278.40;;;;;;4992245;28;20053;-78
2021/11/08 08:19:21;;;;;;;52.50;32.83;;;281.90;2278.40;;;;;;5006154;28;20091;-78
2021/11/08 08:21:47;;;;;;;54.20;34.78;;;281.90;2278.40;;;;;;5022502;28;20030;-78
2021/11/08 08:24:14;;;;;;;52.40;31.80;;;281.90;2278.40;;;;;;4992878;28;20061;-79
2021/11/08 08:26:41;;;;;;;54.15;34.63;;;281.80;2278.40;;;;;;4997317;28;20040;-79
2021/11/08 08:29:09;;;;;;;51.58;33.88;;;282.00;2278.40;;;;;;4997084;28;20426;-78
2021/11/08 08:31:42;;;;;;;45.22;29.92;;;282.10;2278.40;;;;;;5003820;28;20033;-78
2021/11/08 08:34:10;;;;;;;70.32;43.88;;;282.10;2278.40;;;;;;5003718;28;20018;-78
2021/11/08 08:36:36;;;;;;;66.65;39.28;;;282.10;2278.40;;;;;;4998897;28;20034;-79
2021/11/08 08:39:04;;;;;;;63.65;37.85;;;282.10;2278.40;;;;;;4996761;28;20026;-79
2021/11/08 08:41:30;;;;;;;56.40;34.38;;;282.20;2278.40;;;;;;5014467;28;20041;-80
2021/11/08 08:43:56;;;;;;;50.50;32.70;;;282.20;2278.40;;;;;;5015850;28;20101;-77
2021/11/08 08:46:22;;;;;;;46.70;28.10;;;282.30;2278.40;;;;;;5014233;28;20032;-78
2021/11/08 08:48:49;;;;;;;52.47;34.35;;;282.30;2278.40;;;;;;4996688;28;20030;-79
2021/11/08 08:51:15;;;;;;;55.20;32.72;;;282.40;2278.40;;;;;;5012554;28;20061;-79
2021/11/08 08:53:42;;;;;;;43.65;26.88;;;282.50;2278.40;;;;;;5002628;28;20128;-79
2021/11/08 08:56:07;;;;;;;34.17;20.25;;;282.50;2278.40;;;;;;4994851;28;20384;-79
2021/11/08 08:58:33;;;;;;;32.15;21.15;;;282.40;2278.40;;;;;;5013452;28;20109;-79
2021/11/08 09:00:59;;;;;;;37.30;22.85;;;282.40;2278.40;;;;;;4995799;28;20017;-79
2021/11/08 09:03:25;;;;;;;43.17;27.20;;;282.50;2278.40;;;;;;5012340;28;20022;-79
2021/11/08 09:05:51;;;;;;;40.08;23.33;;;282.50;2278.40;;;;;;4999110;28;20026;-77
2021/11/08 09:08:19;;;;;;;36.67;21.90;;;282.50;2278.40;;;;;;4997010;28;20037;-78
2021/11/08 09:10:46;;;;;;;42.15;25.65;;;282.50;2278.40;;;;;;5014754;28;20045;-76
2021/11/08 09:13:12;;;;;;;36.67;20.48;;;282.50;2278.40;;;;;;5029664;28;20110;-79
2021/11/08 09:15:40;;;;;;;32.47;20.73;;;282.50;2278.40;;;;;;4999526;28;20029;-79
2021/11/08 09:18:09;;;;;;;34.92;21.45;;;282.50;2278.40;;;;;;5014529;28;20053;-78
2021/11/08 09:20:37;;;;;;;32.83;21.90;;;282.50;2278.40;;;;;;5012636;28;20029;-78
2021/11/08 09:23:06;;;;;;;33.08;22.38;;;282.50;2278.40;;;;;;5011741;28;20014;-77
2021/11/08 09:25:32;;;;;;;35.13;22.20;;;282.50;2278.40;;;;;;5019353;28;20370;-77
2021/11/08 09:28:01;;;;;;;31.60;19.27;;;282.50;2278.40;;;;;;5016165;28;20022;-77
2021/11/08 09:30:32;;;;;;;35.72;22.55;;;307.20;2304.00;;;;;;5024271;28;20033;-77
2021/11/08 09:32:58;;;;;;;40.22;26.52;;;307.20;2304.00;;;;;;5035308;28;20096;-78
2021/11/08 09:35:30;;;;;;;34.70;21.30;;;307.30;2304.00;;;;;;5017845;28;20044;-78
2021/11/08 09:37:57;;;;;;;50.40;26.40;;;307.30;2304.00;;;;;;5007924;28;20029;-79
2021/11/08 09:40:24;;;;;;;48.30;29.25;;;307.40;2304.00;;;;;;4995249;28;20034;-78
2021/11/08 09:42:55;;;;;;;49.75;28.67;;;307.40;2304.00;;;;;;4999668;28;20030;-78
2021/11/08 09:45:22;;;;;;;55.78;32.33;;;307.40;2304.00;;;;;;4996980;28;20022;-78
2021/11/08 09:47:49;;;;;;;48.35;29.83;;;307.40;2304.00;;;;;;5014732;28;20394;-79
2021/11/08 09:50:18;;;;;;;50.53;28.38;;;307.50;2304.00;;;;;;5015046;28;20116;-78
2021/11/08 09:52:46;;;;;;;53.38;26.92;;;307.50;2304.00;;;;;;5011481;28;20029;-77
2021/11/08 09:55:16;;;;;;;43.50;27.08;;;307.50;2304.00;;;;;;5004832;28;20025;-78
2021/11/08 09:57:42;;;;;;;42.45;27.00;;;307.40;2304.00;;;;;;4995830;28;20018;-77
2021/11/08 10:00:27;;;;;;;44.28;29.10;;;307.40;2304.00;;;;;;4996743;28;20033;-77
2021/11/08 10:02:59;;;;;;;41.20;27.88;;;307.50;2304.00;;;;;;5015110;28;20022;-78
2021/11/08 10:05:29;;;;;;;42.03;25.02;;;307.40;2304.00;;;;;;4996637;28;20091;-77
2021/11/08 10:07:56;;;;;;;39.47;25.50;;;307.40;2304.00;;;;;;4983287;28;20062;-78
2021/11/08 10:10:22;;;;;;;43.00;28.60;;;307.40;2304.00;;;;;;5013470;28;20398;-76
2021/11/08 10:12:54;;;;;;;38.38;26.30;;;307.40;2304.00;;;;;;4995972;28;20026;-77
2021/11/08 10:15:20;;;;;;;42.17;25.60;;;307.40;2304.00;;;;;;5013176;28;20025;-77
2021/11/08 10:17:46;;;;;;;43.75;26.35;;;307.40;2304.00;;;;;;5012609;28;20032;-76
2021/11/08 10:20:27;;;;;;;32.92;22.42;;;307.50;2304.00;;;;;;5006721;28;20025;-76
2021/11/08 10:22:54;;;;;;;109.13;59.33;;;307.50;2304.00;;;;;;5016828;28;20109;-76
2021/11/08 10:25:20;;;;;;;43.05;26.08;;;307.50;2304.00;;;;;;5011575;28;20022;-76
2021/11/08 10:27:46;;;;;;;37.17;23.02;;;307.50;2304.00;;;;;;4998671;28;20038;-77
2021/11/08 10:30:28;;;;;;;34.95;23.23;;;307.50;2304.00;;;;;;5002112;28;20479;-77
2021/11/08 10:33:04;;;;;;;21.05;15.10;;;307.50;2304.00;;;;;;5015468;28;20022;-76
2021/11/08 10:35:46;;;;;;;21.98;13.82;;;307.50;2304.00;;;;;;5016208;28;20480;-76
2021/11/08 10:38:24;;;;;;;30.48;19.30;;;307.50;2304.00;;;;;;5013001;28;20038;-75
2021/11/08 10:41:00;;;;;;;24.48;16.10;;;307.40;2304.00;;;;;;4991538;28;20034;-78
2021/11/08 10:43:36;;;;;;;34.92;23.33;;;307.40;2304.00;;;;;;5016234;28;20475;-76
2021/11/08 10:46:10;;;;;;;27.52;18.60;;;307.40;2304.00;;;;;;5015941;28;20021;-74
2021/11/08 10:48:46;;;;;;;28.98;18.85;;;307.20;2304.00;;;;;;4998265;28;20053;-77
2021/11/08 10:51:15;;;;;;;30.83;20.48;;;307.30;2304.00;;;;;;4998077;28;20065;-77
2021/11/08 10:53:47;;;;;;;25.77;18.65;;;307.30;2304.00;;;;;;5015572;28;20026;-75
2021/11/08 10:56:17;;;;;;;22.67;15.73;;;307.30;2304.00;;;;;;5015557;28;20057;-75
2021/11/08 10:58:44;;;;;;;31.00;19.40;;;307.30;2304.00;;;;;;5016985;28;20025;-75
2021/11/08 11:01:23;;;;;;;29.40;17.15;;;307.30;2304.00;;;;;;5016704;28;20101;-77
2021/11/08 11:03:50;;;;;;;36.90;23.02;;;307.40;2304.00;;;;;;5017098;28;20022;-77
2021/11/08 11:06:17;;;;;;;32.42;19.08;;;307.40;2304.00;;;;;;5021085;28;20459;-77
2021/11/08 11:08:49;;;;;;;33.88;20.20;;;307.50;2304.00;;;;;;5016291;28;20041;-75
2021/11/08 11:11:20;;;;;;;40.20;22.35;;;307.50;2304.00;;;;;;5013535;28;20029;-77
2021/11/08 11:13:50;;;;;;;34.65;21.48;;;307.50;2304.00;;;;;;5015426;28;20026;-76
2021/11/08 11:16:29;;;;;;;39.95;24.80;;;307.50;2304.00;;;;;;5015301;28;20075;-76
2021/11/08 11:19:05;;;;;;;34.08;19.65;;;307.50;2304.00;;;;;;5015419;28;20029;-76
2021/11/08 11:21:32;;;;;;;24.23;15.63;;;307.40;2304.00;;;;;;5016678;28;20164;-77
2021/11/08 11:24:03;;;;;;;22.33;14.95;;;307.50;2304.00;;;;;;5015504;28;20172;-77
2021/11/08 11:26:34;;;;;;;27.85;18.80;;;307.50;2304.00;;;;;;5017810;28;20533;-77
2021/11/08 11:29:00;;;;;;;36.03;21.85;;;307.50;2304.00;;;;;;5016911;28;20115;-77
2021/11/08 11:31:32;;;;;;;27.15;20.58;;;307.50;2304.00;;;;;;5016631;28;20397;-77
2021/11/08 11:34:12;;;;;;;25.83;18.98;;;307.40;2304.00;;;;;;5015351;28;20057;-77
2021/11/08 11:36:39;;;;;;;34.35;21.60;;;307.30;2304.00;;;;;;5014739;28;20026;-76
2021/11/08 11:39:10;;;;;;;37.72;23.75;;;307.30;2304.00;;;;;;5015026;28;20034;-76
2021/11/08 11:41:39;;;;;;;35.72;23.13;;;307.20;2304.00;;;;;;5005925;28;20036;-76
2021/11/08 11:44:11;;;;;;;32.75;19.92;;;282.50;2278.40;;;;;;5014060;28;20101;-76
2021/11/08 11:46:41;;;;;;;27.30;18.77;;;282.50;2278.40;;;;;;5014996;28;20076;-76
2021/11/08 11:49:08;;;;;;;28.63;18.52;;;282.50;2278.40;;;;;;4997071;28;20025;-76
2021/11/08 11:51:40;;;;;;;26.48;16.63;;;282.30;2278.40;;;;;;5014692;28;20030;-77
2021/11/08 11:54:08;;;;;;;19.88;14.32;;;282.40;2278.40;;;;;;5011825;28;20022;-74
2021/11/08 11:56:37;;;;;;;28.48;20.92;;;282.40;2278.40;;;;;;4986374;28;20034;-76
2021/11/08 11:59:04;;;;;;;27.45;18.00;;;282.40;2278.40;;;;;;5014554;28;20026;-77
2021/11/08 12:01:31;;;;;;;31.73;21.92;;;282.50;2278.40;;;;;;5014729;28;20387;-78
2021/11/08 12:03:57;;;;;;;46.50;30.52;;;282.50;2278.40;;;;;;4997044;28;20018;-77
2021/11/08 12:06:32;;;;;;;60.40;33.03;;;307.20;2304.00;;;;;;5013981;28;20025;-76
2021/11/08 12:09:01;;;;;;;48.95;30.23;;;282.50;2278.40;;;;;;5014355;28;20034;-76
2021/11/08 12:11:32;;;;;;;37.70;26.10;;;282.50;2278.40;;;;;;5014277;28;20113;-76
2021/11/08 12:14:03;;;;;;;43.53;27.70;;;282.50;2278.40;;;;;;5014393;28;20024;-76
2021/11/08 12:16:32;;;;;;;39.97;24.52;;;282.40;2278.40;;;;;;5020400;28;20494;-77
2021/11/08 12:19:00;;;;;;;43.25;25.33;;;282.30;2278.40;;;;;;5005607;28;20113;-76
2021/11/08 12:21:27;;;;;;;30.45;20.30;;;282.30;2278.40;;;;;;5015249;28;20510;-77
2021/11/08 12:23:55;;;;;;;25.90;17.33;;;282.20;2278.40;;;;;;5015546;28;20026;-78
2021/11/08 12:26:26;;;;;;;29.70;20.13;;;282.20;2278.40;;;;;;5016889;28;20056;-76
2021/11/08 12:29:03;;;;;;;31.45;18.20;;;282.20;2278.40;;;;;;5014435;28;20478;-75
2021/11/08 12:31:33;;;;;;;30.15;19.45;;;282.20;2278.40;;;;;;5014227;28;20375;-78
2021/11/08 12:34:13;;;;;;;27.23;17.60;;;282.20;2278.40;;;;;;5014156;28;20378;-77
2021/11/08 12:36:40;;;;;;;22.05;13.07;;;282.10;2278.40;;;;;;5013689;28;20026;-80
2021/11/08 12:39:12;;;;;;;14.18;9.57;;;282.10;2278.40;;;;;;5013714;28;20029;-77
2021/11/08 12:41:47;;;;;;;16.55;11.48;;;282.10;2278.40;;;;;;5013822;28;20026;-75
2021/11/08 12:44:20;;;;;;;17.42;12.75;;;282.10;2278.40;;;;;;5013372;28;20069;-76
2021/11/08 12:46:47;;;;;;;13.90;9.27;;;282.10;2278.40;;;;;;5013456;28;20076;-77
2021/11/08 12:49:21;;;;;;;14.65;10.80;;;282.10;2278.40;;;;;;5013623;28;20514;-76
2021/11/08 12:52:14;;;;;;;17.85;11.65;;;282.10;2278.40;;;;;;5013596;28;20109;-76
2021/11/08 12:55:16;;;;;;;25.02;16.13;;;282.00;2278.40;;;;;;4952984;28;20042;-75
2021/11/08 12:57:56;;;;;;;21.80;12.75;;;282.00;2278.40;;;;;;4917783;29;20115;-75
2021/11/08 13:00:28;;;;;;;21.67;13.25;;;281.90;2278.40;;;;;;4933846;29;20043;-76
2021/11/08 13:03:00;;;;;;;21.73;13.70;;;282.00;2278.40;;;;;;4917877;29;20114;-75
2021/11/08 13:05:30;;;;;;;20.45;12.63;;;282.00;2278.40;;;;;;4933722;29;20036;-75
2021/11/08 13:07:57;;;;;;;30.98;20.20;;;282.00;2278.40;;;;;;4921822;29;20066;-75
2021/11/08 13:10:25;;;;;;;32.72;18.98;;;282.00;2278.40;;;;;;4933589;29;20040;-75
2021/11/08 13:12:53;;;;;;;23.02;15.65;;;282.00;2278.40;;;;;;4932835;29;20062;-76
2021/11/08 13:15:24;;;;;;;18.90;14.68;;;282.00;2278.40;;;;;;4923540;29;20120;-79
2021/11/08 13:18:03;;;;;;;24.92;17.17;;;282.00;2278.40;;;;;;4931346;29;20062;-80
2021/11/08 13:20:35;;;;;;;27.63;15.98;;;282.00;2278.40;;;;;;4925798;29;20023;-78
2021/11/08 13:23:06;;;;;;;19.75;12.82;;;282.00;2278.40;;;;;;4933172;29;20125;-81
2021/11/08 13:25:47;;;;;;;25.08;14.95;;;282.00;2278.40;;;;;;4933626;29;20028;-80
2021/11/08 13:28:16;;;;;;;24.67;15.20;;;282.10;2278.40;;;;;;4933267;29;20036;-78
2021/11/08 13:30:50;;;;;;;23.55;15.27;;;282.20;2278.40;;;;;;4942833;28;20480;-75
2021/11/08 13:33:22;;;;;;;26.08;18.23;;;282.20;2278.40;;;;;;5009902;28;20471;-79
2021/11/08 13:35:48;;;;;;;24.13;16.50;;;282.10;2278.40;;;;;;5003142;28;20470;-77
2021/11/08 13:38:21;;;;;;;17.65;12.48;;;282.10;2278.40;;;;;;5015864;28;20041;-77
2021/11/08 13:40:57;;;;;;;25.80;16.50;;;282.10;2278.40;;;;;;5013266;28;20018;-78
2021/11/08 13:43:26;;;;;;;24.13;15.77;;;282.20;2278.40;;;;;;4995465;28;20632;-77
2021/11/08 13:45:53;;;;;;;24.08;16.58;;;282.20;2278.40;;;;;;5009157;28;20033;-78
2021/11/08 13:48:31;;;;;;;26.23;17.50;;;282.30;2278.40;;;;;;5012777;28;20460;-76
2021/11/08 13:51:00;;;;;;;25.80;16.73;;;282.30;2278.40;;;;;;5012815;28;20478;-78
2021/11/08 13:53:35;;;;;;;27.48;17.40;;;282.30;2278.40;;;;;;5015372;28;20042;-78